sensor_id;sensor_type;location;lat;lon;timestamp;temperature;humidity
2409;DHT22;8463;48.094;7.970;2023-02-19T00:01:25;12.10;29.50
2409;DHT22;8463;48.094;7.970;2023-02-19T00:03:54;12.10;29.00
2409;DHT22;8463;48.094;7.970;2023-02-19T00:06:24;12.10;28.90
2409;DHT22;8463;48.094;7.970;2023-02-19T00:08:50;12.10;28.70
2409;DHT22;8463;48.094;7.970;2023-02-19T00:11:18;12.10;28.30
2409;DHT22;8463;48.094;7.970;2023-02-19T00:13:49;12.00;28.30
2409;DHT22;8463;48.094;7.970;2023-02-19T00:16:17;12.00;27.10
2409;DHT22;8463;48.094;7.970;2023-02-19T00:18:44;12.00;27.10
2409;DHT22;8463;48.094;7.970;2023-02-19T00:21:11;12.00;27.10
2409;DHT22;8463;48.094;7.970;2023-02-19T00:23:37;12.00;26.40
2409;DHT22;8463;48.094;7.970;2023-02-19T00:28:31;12.00;25.60
2409;DHT22;8463;48.094;7.970;2023-02-19T00:31:19;11.90;25.80
2409;DHT22;8463;48.094;7.970;2023-02-19T00:33:47;11.90;26.00
2409;DHT22;8463;48.094;7.970;2023-02-19T00:36:15;11.90;25.60
2409;DHT22;8463;48.094;7.970;2023-02-19T00:38:42;11.90;25.90
2409;DHT22;8463;48.094;7.970;2023-02-19T00:41:08;11.90;25.50
2409;DHT22;8463;48.094;7.970;2023-02-19T00:46:18;11.90;25.20
2409;DHT22;8463;48.094;7.970;2023-02-19T00:48:50;11.90;25.60
2409;DHT22;8463;48.094;7.970;2023-02-19T00:51:18;11.90;25.70
2409;DHT22;8463;48.094;7.970;2023-02-19T00:53:43;11.80;25.90
2409;DHT22;8463;48.094;7.970;2023-02-19T00:56:09;11.80;25.60
2409;DHT22;8463;48.094;7.970;2023-02-19T00:58:35;11.80;25.60
2409;DHT22;8463;48.094;7.970;2023-02-19T01:01:01;11.80;25.70
2409;DHT22;8463;48.094;7.970;2023-02-19T01:03:30;11.70;25.90
2409;DHT22;8463;48.094;7.970;2023-02-19T01:05:58;11.70;25.90
2409;DHT22;8463;48.094;7.970;2023-02-19T01:08:24;11.70;25.90
2409;DHT22;8463;48.094;7.970;2023-02-19T01:10:50;11.70;25.70
2409;DHT22;8463;48.094;7.970;2023-02-19T01:13:16;11.70;25.60
2409;DHT22;8463;48.094;7.970;2023-02-19T01:15:42;11.60;26.00
2409;DHT22;8463;48.094;7.970;2023-02-19T01:18:08;11.60;25.50
2409;DHT22;8463;48.094;7.970;2023-02-19T01:20:40;11.60;26.00
2409;DHT22;8463;48.094;7.970;2023-02-19T01:23:06;11.60;26.20
2409;DHT22;8463;48.094;7.970;2023-02-19T01:25:32;11.60;26.30
2409;DHT22;8463;48.094;7.970;2023-02-19T01:27:57;11.60;26.60
2409;DHT22;8463;48.094;7.970;2023-02-19T01:30:26;11.60;26.80
2409;DHT22;8463;48.094;7.970;2023-02-19T01:32:51;11.50;26.70
2409;DHT22;8463;48.094;7.970;2023-02-19T01:35:17;11.50;26.10
2409;DHT22;8463;48.094;7.970;2023-02-19T01:37:42;11.50;26.20
2409;DHT22;8463;48.094;7.970;2023-02-19T01:40:08;11.50;25.90
2409;DHT22;8463;48.094;7.970;2023-02-19T01:42:34;11.50;26.10
2409;DHT22;8463;48.094;7.970;2023-02-19T01:45:32;11.50;25.50
2409;DHT22;8463;48.094;7.970;2023-02-19T01:48:12;11.50;25.70
2409;DHT22;8463;48.094;7.970;2023-02-19T01:50:53;11.60;25.30
2409;DHT22;8463;48.094;7.970;2023-02-19T01:53:26;11.50;25.60
2409;DHT22;8463;48.094;7.970;2023-02-19T01:55:57;11.50;25.60
2409;DHT22;8463;48.094;7.970;2023-02-19T01:58:30;11.50;25.40
2409;DHT22;8463;48.094;7.970;2023-02-19T02:00:58;11.50;25.60
2409;DHT22;8463;48.094;7.970;2023-02-19T02:03:24;11.50;25.80
2409;DHT22;8463;48.094;7.970;2023-02-19T02:05:58;11.40;26.10
2409;DHT22;8463;48.094;7.970;2023-02-19T02:08:32;11.40;26.00
2409;DHT22;8463;48.094;7.970;2023-02-19T02:11:16;11.40;26.20
2409;DHT22;8463;48.094;7.970;2023-02-19T02:13:43;11.40;26.20
2409;DHT22;8463;48.094;7.970;2023-02-19T02:16:47;11.40;26.10
2409;DHT22;8463;48.094;7.970;2023-02-19T02:22:20;11.30;26.60
2409;DHT22;8463;48.094;7.970;2023-02-19T02:35:47;11.30;27.10
2409;DHT22;8463;48.094;7.970;2023-02-19T02:38:15;11.20;26.50
2409;DHT22;8463;48.094;7.970;2023-02-19T02:40:43;11.20;26.50
2409;DHT22;8463;48.094;7.970;2023-02-19T02:43:10;11.20;26.80
2409;DHT22;8463;48.094;7.970;2023-02-19T02:45:39;11.10;27.00
2409;DHT22;8463;48.094;7.970;2023-02-19T02:53:51;11.10;27.50
2409;DHT22;8463;48.094;7.970;2023-02-19T02:56:38;11.10;27.60
2409;DHT22;8463;48.094;7.970;2023-02-19T02:59:10;11.10;28.70
2409;DHT22;8463;48.094;7.970;2023-02-19T03:01:44;11.00;29.00
2409;DHT22;8463;48.094;7.970;2023-02-19T03:04:43;10.90;29.60
2409;DHT22;8463;48.094;7.970;2023-02-19T03:07:38;10.90;30.00
2409;DHT22;8463;48.094;7.970;2023-02-19T03:10:09;10.90;30.10
2409;DHT22;8463;48.094;7.970;2023-02-19T03:12:38;10.80;30.10
2409;DHT22;8463;48.094;7.970;2023-02-19T03:15:30;10.80;29.90
2409;DHT22;8463;48.094;7.970;2023-02-19T03:18:18;10.90;29.90
2409;DHT22;8463;48.094;7.970;2023-02-19T03:21:03;10.80;29.30
2409;DHT22;8463;48.094;7.970;2023-02-19T03:23:32;10.80;29.20
2409;DHT22;8463;48.094;7.970;2023-02-19T03:26:17;10.90;29.00
2409;DHT22;8463;48.094;7.970;2023-02-19T03:28:44;10.90;29.00
2409;DHT22;8463;48.094;7.970;2023-02-19T03:31:31;10.90;29.30
2409;DHT22;8463;48.094;7.970;2023-02-19T03:34:04;10.80;29.30
2409;DHT22;8463;48.094;7.970;2023-02-19T03:36:39;10.90;29.40
2409;DHT22;8463;48.094;7.970;2023-02-19T03:39:10;10.80;29.60
2409;DHT22;8463;48.094;7.970;2023-02-19T03:42:01;10.80;29.60
2409;DHT22;8463;48.094;7.970;2023-02-19T03:55:15;10.80;29.80
2409;DHT22;8463;48.094;7.970;2023-02-19T03:57:55;10.80;29.70
2409;DHT22;8463;48.094;7.970;2023-02-19T04:01:06;10.90;29.40
2409;DHT22;8463;48.094;7.970;2023-02-19T04:06:01;10.90;29.00
2409;DHT22;8463;48.094;7.970;2023-02-19T04:08:36;10.90;29.00
2409;DHT22;8463;48.094;7.970;2023-02-19T04:11:03;10.90;29.20
2409;DHT22;8463;48.094;7.970;2023-02-19T04:13:35;10.90;29.00
2409;DHT22;8463;48.094;7.970;2023-02-19T04:16:06;10.90;29.10
2409;DHT22;8463;48.094;7.970;2023-02-19T04:18:36;10.90;29.70
2409;DHT22;8463;48.094;7.970;2023-02-19T04:21:09;10.90;28.80
2409;DHT22;8463;48.094;7.970;2023-02-19T04:23:42;10.90;28.60
2409;DHT22;8463;48.094;7.970;2023-02-19T04:26:09;10.90;28.70
2409;DHT22;8463;48.094;7.970;2023-02-19T04:28:36;10.90;28.80
2409;DHT22;8463;48.094;7.970;2023-02-19T04:31:02;10.90;28.80
2409;DHT22;8463;48.094;7.970;2023-02-19T04:33:28;10.90;29.00
2409;DHT22;8463;48.094;7.970;2023-02-19T04:35:53;10.90;29.00
2409;DHT22;8463;48.094;7.970;2023-02-19T04:38:19;10.90;29.00
2409;DHT22;8463;48.094;7.970;2023-02-19T04:40:45;10.90;29.10
2409;DHT22;8463;48.094;7.970;2023-02-19T04:43:11;10.90;29.90
2409;DHT22;8463;48.094;7.970;2023-02-19T04:45:37;10.90;29.40
2409;DHT22;8463;48.094;7.970;2023-02-19T04:48:04;10.80;29.30
2409;DHT22;8463;48.094;7.970;2023-02-19T04:50:30;10.80;29.40
2409;DHT22;8463;48.094;7.970;2023-02-19T04:52:56;10.90;29.20
2409;DHT22;8463;48.094;7.970;2023-02-19T04:55:22;10.80;29.20
2409;DHT22;8463;48.094;7.970;2023-02-19T04:57:48;10.80;29.30
2409;DHT22;8463;48.094;7.970;2023-02-19T05:00:14;10.80;29.50
2409;DHT22;8463;48.094;7.970;2023-02-19T05:02:40;10.80;29.90
2409;DHT22;8463;48.094;7.970;2023-02-19T05:05:09;10.70;29.80
2409;DHT22;8463;48.094;7.970;2023-02-19T05:07:35;10.70;30.00
2409;DHT22;8463;48.094;7.970;2023-02-19T05:10:01;10.70;30.00
2409;DHT22;8463;48.094;7.970;2023-02-19T05:12:28;10.70;30.00
2409;DHT22;8463;48.094;7.970;2023-02-19T05:14:54;10.70;30.00
2409;DHT22;8463;48.094;7.970;2023-02-19T05:17:20;10.70;30.10
2409;DHT22;8463;48.094;7.970;2023-02-19T05:19:46;10.60;30.20
2409;DHT22;8463;48.094;7.970;2023-02-19T05:22:12;10.60;30.40
2409;DHT22;8463;48.094;7.970;2023-02-19T05:24:39;10.60;30.70
2409;DHT22;8463;48.094;7.970;2023-02-19T05:27:04;10.60;30.70
2409;DHT22;8463;48.094;7.970;2023-02-19T05:29:33;10.60;31.10
2409;DHT22;8463;48.094;7.970;2023-02-19T05:31:59;10.60;31.20
2409;DHT22;8463;48.094;7.970;2023-02-19T05:34:24;10.60;31.40
2409;DHT22;8463;48.094;7.970;2023-02-19T05:36:50;10.60;31.90
2409;DHT22;8463;48.094;7.970;2023-02-19T05:39:15;10.50;32.50
2409;DHT22;8463;48.094;7.970;2023-02-19T05:41:41;10.50;33.40
2409;DHT22;8463;48.094;7.970;2023-02-19T05:44:10;10.50;33.40
2409;DHT22;8463;48.094;7.970;2023-02-19T05:46:37;10.40;34.00
2409;DHT22;8463;48.094;7.970;2023-02-19T05:49:05;10.40;34.00
2409;DHT22;8463;48.094;7.970;2023-02-19T05:51:31;10.40;34.00
2409;DHT22;8463;48.094;7.970;2023-02-19T05:53:59;10.30;33.90
2409;DHT22;8463;48.094;7.970;2023-02-19T05:58:51;10.30;34.70
2409;DHT22;8463;48.094;7.970;2023-02-19T06:01:18;10.20;35.60
2409;DHT22;8463;48.094;7.970;2023-02-19T06:03:47;10.20;35.40
2409;DHT22;8463;48.094;7.970;2023-02-19T06:06:14;10.20;35.40
2409;DHT22;8463;48.094;7.970;2023-02-19T06:08:40;10.20;35.80
2409;DHT22;8463;48.094;7.970;2023-02-19T06:11:06;10.20;36.10
2409;DHT22;8463;48.094;7.970;2023-02-19T06:13:37;10.20;36.60
2409;DHT22;8463;48.094;7.970;2023-02-19T06:16:04;10.10;37.40
2409;DHT22;8463;48.094;7.970;2023-02-19T06:18:30;10.10;37.90
2409;DHT22;8463;48.094;7.970;2023-02-19T06:21:03;10.00;38.70
2409;DHT22;8463;48.094;7.970;2023-02-19T06:23:29;10.00;39.00
2409;DHT22;8463;48.094;7.970;2023-02-19T06:26:11;10.00;39.20
2409;DHT22;8463;48.094;7.970;2023-02-19T06:28:38;10.00;39.50
2409;DHT22;8463;48.094;7.970;2023-02-19T06:31:07;9.90;41.00
2409;DHT22;8463;48.094;7.970;2023-02-19T06:33:33;10.00;40.40
2409;DHT22;8463;48.094;7.970;2023-02-19T06:36:04;9.90;41.50
2409;DHT22;8463;48.094;7.970;2023-02-19T06:38:32;9.80;43.30
2409;DHT22;8463;48.094;7.970;2023-02-19T06:41:07;9.80;43.60
2409;DHT22;8463;48.094;7.970;2023-02-19T06:43:33;9.80;44.10
2409;DHT22;8463;48.094;7.970;2023-02-19T06:46:01;9.70;43.80
2409;DHT22;8463;48.094;7.970;2023-02-19T06:48:27;9.70;44.60
2409;DHT22;8463;48.094;7.970;2023-02-19T06:50:56;9.70;46.90
2409;DHT22;8463;48.094;7.970;2023-02-19T06:53:23;9.70;47.40
2409;DHT22;8463;48.094;7.970;2023-02-19T06:56:02;9.70;47.60
2409;DHT22;8463;48.094;7.970;2023-02-19T06:58:29;9.70;48.10
2409;DHT22;8463;48.094;7.970;2023-02-19T07:01:03;9.60;48.30
2409;DHT22;8463;48.094;7.970;2023-02-19T07:03:29;9.60;48.50
2409;DHT22;8463;48.094;7.970;2023-02-19T07:05:58;9.60;49.50
2409;DHT22;8463;48.094;7.970;2023-02-19T07:08:25;9.60;50.40
2409;DHT22;8463;48.094;7.970;2023-02-19T07:10:54;9.60;51.10
2409;DHT22;8463;48.094;7.970;2023-02-19T07:13:21;9.50;52.30
2409;DHT22;8463;48.094;7.970;2023-02-19T07:15:46;9.60;53.40
2409;DHT22;8463;48.094;7.970;2023-02-19T07:18:12;9.50;52.30
2409;DHT22;8463;48.094;7.970;2023-02-19T07:20:38;9.50;52.30
2409;DHT22;8463;48.094;7.970;2023-02-19T07:23:03;9.60;52.40
2409;DHT22;8463;48.094;7.970;2023-02-19T07:25:29;9.50;52.30
2409;DHT22;8463;48.094;7.970;2023-02-19T07:27:54;9.50;53.00
2409;DHT22;8463;48.094;7.970;2023-02-19T07:30:20;9.50;52.30
2409;DHT22;8463;48.094;7.970;2023-02-19T07:32:46;9.50;52.30
2409;DHT22;8463;48.094;7.970;2023-02-19T07:35:12;9.50;53.60
2409;DHT22;8463;48.094;7.970;2023-02-19T07:37:39;9.40;53.90
2409;DHT22;8463;48.094;7.970;2023-02-19T07:40:10;9.50;54.70
2409;DHT22;8463;48.094;7.970;2023-02-19T07:42:36;9.50;55.50
2409;DHT22;8463;48.094;7.970;2023-02-19T07:45:02;9.40;56.20
2409;DHT22;8463;48.094;7.970;2023-02-19T07:47:28;9.50;57.20
2409;DHT22;8463;48.094;7.970;2023-02-19T07:49:54;9.50;56.70
2409;DHT22;8463;48.094;7.970;2023-02-19T07:52:20;9.40;56.30
2409;DHT22;8463;48.094;7.970;2023-02-19T07:54:45;9.50;60.20
2409;DHT22;8463;48.094;7.970;2023-02-19T07:57:11;9.80;62.70
2409;DHT22;8463;48.094;7.970;2023-02-19T07:59:43;10.00;55.40
2409;DHT22;8463;48.094;7.970;2023-02-19T08:02:16;9.90;54.00
2409;DHT22;8463;48.094;7.970;2023-02-19T08:05:00;9.70;55.40
2409;DHT22;8463;48.094;7.970;2023-02-19T08:07:36;9.50;57.90
2409;DHT22;8463;48.094;7.970;2023-02-19T08:10:05;9.40;59.80
2409;DHT22;8463;48.094;7.970;2023-02-19T08:13:08;9.40;60.20
2409;DHT22;8463;48.094;7.970;2023-02-19T08:15:55;9.30;61.20
2409;DHT22;8463;48.094;7.970;2023-02-19T08:18:25;9.30;62.00
2409;DHT22;8463;48.094;7.970;2023-02-19T08:20:52;9.20;61.40
2409;DHT22;8463;48.094;7.970;2023-02-19T08:23:18;9.30;60.70
2409;DHT22;8463;48.094;7.970;2023-02-19T08:25:45;9.40;60.70
2409;DHT22;8463;48.094;7.970;2023-02-19T08:28:11;9.40;59.80
2409;DHT22;8463;48.094;7.970;2023-02-19T08:30:44;9.40;59.40
2409;DHT22;8463;48.094;7.970;2023-02-19T08:33:13;9.40;59.10
2409;DHT22;8463;48.094;7.970;2023-02-19T08:35:39;9.40;59.60
2409;DHT22;8463;48.094;7.970;2023-02-19T08:38:09;9.40;58.60
2409;DHT22;8463;48.094;7.970;2023-02-19T08:40:37;9.40;59.60
2409;DHT22;8463;48.094;7.970;2023-02-19T08:43:12;9.50;58.80
2409;DHT22;8463;48.094;7.970;2023-02-19T08:45:39;9.60;57.50
2409;DHT22;8463;48.094;7.970;2023-02-19T08:48:17;9.60;57.40
2409;DHT22;8463;48.094;7.970;2023-02-19T08:50:43;9.70;55.90
2409;DHT22;8463;48.094;7.970;2023-02-19T08:53:11;9.80;55.40
2409;DHT22;8463;48.094;7.970;2023-02-19T08:55:39;9.80;55.10
2409;DHT22;8463;48.094;7.970;2023-02-19T08:58:05;9.90;55.70
2409;DHT22;8463;48.094;7.970;2023-02-19T09:00:31;10.00;53.40
2409;DHT22;8463;48.094;7.970;2023-02-19T09:02:57;10.00;52.90
2409;DHT22;8463;48.094;7.970;2023-02-19T09:05:26;10.10;51.80
2409;DHT22;8463;48.094;7.970;2023-02-19T09:07:51;10.10;51.80
2409;DHT22;8463;48.094;7.970;2023-02-19T09:10:17;10.10;51.80
2409;DHT22;8463;48.094;7.970;2023-02-19T09:12:43;10.10;50.80
2409;DHT22;8463;48.094;7.970;2023-02-19T09:15:09;10.10;49.80
2409;DHT22;8463;48.094;7.970;2023-02-19T09:17:34;10.10;48.80
2409;DHT22;8463;48.094;7.970;2023-02-19T09:20:00;10.20;49.90
2409;DHT22;8463;48.094;7.970;2023-02-19T09:22:26;10.20;50.70
2409;DHT22;8463;48.094;7.970;2023-02-19T09:24:51;10.20;50.70
2409;DHT22;8463;48.094;7.970;2023-02-19T09:27:18;10.20;51.10
2409;DHT22;8463;48.094;7.970;2023-02-19T09:29:44;10.20;49.50
2409;DHT22;8463;48.094;7.970;2023-02-19T09:32:10;10.40;48.70
2409;DHT22;8463;48.094;7.970;2023-02-19T09:34:36;10.40;47.70
2409;DHT22;8463;48.094;7.970;2023-02-19T09:37:06;10.40;48.40
2409;DHT22;8463;48.094;7.970;2023-02-19T09:39:33;10.40;47.40
2409;DHT22;8463;48.094;7.970;2023-02-19T09:42:16;10.40;46.70
2409;DHT22;8463;48.094;7.970;2023-02-19T09:44:47;10.40;44.80
2409;DHT22;8463;48.094;7.970;2023-02-19T09:47:26;10.40;44.80
2409;DHT22;8463;48.094;7.970;2023-02-19T09:49:59;10.40;44.00
2409;DHT22;8463;48.094;7.970;2023-02-19T09:52:39;10.50;44.80
2409;DHT22;8463;48.094;7.970;2023-02-19T09:55:31;10.50;43.10
2409;DHT22;8463;48.094;7.970;2023-02-19T09:58:00;10.50;41.90
2409;DHT22;8463;48.094;7.970;2023-02-19T10:00:32;10.60;40.90
2409;DHT22;8463;48.094;7.970;2023-02-19T10:03:21;10.60;40.40
2409;DHT22;8463;48.094;7.970;2023-02-19T10:05:47;10.60;40.70
2409;DHT22;8463;48.094;7.970;2023-02-19T10:08:17;10.70;40.40
2409;DHT22;8463;48.094;7.970;2023-02-19T10:10:44;10.70;39.10
2409;DHT22;8463;48.094;7.970;2023-02-19T10:13:21;10.70;39.30
2409;DHT22;8463;48.094;7.970;2023-02-19T10:15:52;10.70;37.90
2409;DHT22;8463;48.094;7.970;2023-02-19T10:18:21;10.80;37.20
2409;DHT22;8463;48.094;7.970;2023-02-19T10:20:49;10.80;36.00
2409;DHT22;8463;48.094;7.970;2023-02-19T10:23:15;10.90;36.00
2409;DHT22;8463;48.094;7.970;2023-02-19T10:25:53;11.00;36.70
2409;DHT22;8463;48.094;7.970;2023-02-19T10:28:30;11.10;35.80
2409;DHT22;8463;48.094;7.970;2023-02-19T10:31:00;11.00;33.40
2409;DHT22;8463;48.094;7.970;2023-02-19T10:33:26;11.20;34.80
2409;DHT22;8463;48.094;7.970;2023-02-19T10:35:58;11.30;34.90
2409;DHT22;8463;48.094;7.970;2023-02-19T10:38:30;11.20;34.00
2409;DHT22;8463;48.094;7.970;2023-02-19T10:41:17;11.20;33.20
2409;DHT22;8463;48.094;7.970;2023-02-19T10:44:04;11.20;33.00
2409;DHT22;8463;48.094;7.970;2023-02-19T10:46:33;11.20;31.40
2409;DHT22;8463;48.094;7.970;2023-02-19T10:49:05;11.20;31.30
2409;DHT22;8463;48.094;7.970;2023-02-19T10:54:32;11.10;31.90
2409;DHT22;8463;48.094;7.970;2023-02-19T10:57:25;11.10;31.30
2409;DHT22;8463;48.094;7.970;2023-02-19T11:00:00;11.10;32.40
2409;DHT22;8463;48.094;7.970;2023-02-19T11:02:28;11.10;32.40
2409;DHT22;8463;48.094;7.970;2023-02-19T11:05:18;11.00;34.10
2409;DHT22;8463;48.094;7.970;2023-02-19T11:07:56;11.00;34.60
2409;DHT22;8463;48.094;7.970;2023-02-19T11:10:28;11.10;34.70
2409;DHT22;8463;48.094;7.970;2023-02-19T11:12:57;11.10;35.10
2409;DHT22;8463;48.094;7.970;2023-02-19T11:15:33;11.00;34.60
2409;DHT22;8463;48.094;7.970;2023-02-19T11:20:28;11.00;35.40
2409;DHT22;8463;48.094;7.970;2023-02-19T11:22:58;11.00;35.40
2409;DHT22;8463;48.094;7.970;2023-02-19T11:25:25;11.00;34.60
2409;DHT22;8463;48.094;7.970;2023-02-19T11:28:06;11.00;34.60
2409;DHT22;8463;48.094;7.970;2023-02-19T11:30:46;10.90;34.50
2409;DHT22;8463;48.094;7.970;2023-02-19T11:35:41;10.90;33.30
2409;DHT22;8463;48.094;7.970;2023-02-19T11:38:09;10.90;32.80
2409;DHT22;8463;48.094;7.970;2023-02-19T11:54:54;11.10;30.50
2409;DHT22;8463;48.094;7.970;2023-02-19T12:05:21;11.30;28.50
2409;DHT22;8463;48.094;7.970;2023-02-19T12:24:40;11.30;20.80
2409;DHT22;8463;48.094;7.970;2023-02-19T12:44:36;11.30;19.10
2409;DHT22;8463;48.094;7.970;2023-02-19T12:47:06;11.30;19.10
2409;DHT22;8463;48.094;7.970;2023-02-19T12:49:37;11.30;19.10
2409;DHT22;8463;48.094;7.970;2023-02-19T12:52:11;11.30;19.10
2409;DHT22;8463;48.094;7.970;2023-02-19T12:54:46;11.20;19.60
2409;DHT22;8463;48.094;7.970;2023-02-19T13:02:44;11.20;20.70
2409;DHT22;8463;48.094;7.970;2023-02-19T13:08:04;11.30;21.00
2409;DHT22;8463;48.094;7.970;2023-02-19T13:10:37;11.40;21.40
2409;DHT22;8463;48.094;7.970;2023-02-19T13:13:11;11.50;20.40
2409;DHT22;8463;48.094;7.970;2023-02-19T13:15:49;11.60;19.30
2409;DHT22;8463;48.094;7.970;2023-02-19T13:18:34;11.70;19.40
2409;DHT22;8463;48.094;7.970;2023-02-19T13:21:01;11.80;18.10
2409;DHT22;8463;48.094;7.970;2023-02-19T13:23:38;11.90;18.20
2409;DHT22;8463;48.094;7.970;2023-02-19T13:32:38;11.70;18.00
2409;DHT22;8463;48.094;7.970;2023-02-19T13:35:27;11.70;17.40
2409;DHT22;8463;48.094;7.970;2023-02-19T13:38:01;11.70;16.10
2409;DHT22;8463;48.094;7.970;2023-02-19T13:40:36;11.60;16.30
2409;DHT22;8463;48.094;7.970;2023-02-19T13:43:06;11.60;17.20
2409;DHT22;8463;48.094;7.970;2023-02-19T13:45:45;11.60;17.00
2409;DHT22;8463;48.094;7.970;2023-02-19T13:53:47;11.70;14.80
2409;DHT22;8463;48.094;7.970;2023-02-19T14:14:42;11.40;15.50
2409;DHT22;8463;48.094;7.970;2023-02-19T14:30:52;11.40;15.30
2409;DHT22;8463;48.094;7.970;2023-02-19T14:33:22;11.30;15.20
2409;DHT22;8463;48.094;7.970;2023-02-19T14:35:54;11.30;16.10
2409;DHT22;8463;48.094;7.970;2023-02-19T14:38:24;11.40;15.40
2409;DHT22;8463;48.094;7.970;2023-02-19T14:40:51;11.30;16.00
2409;DHT22;8463;48.094;7.970;2023-02-19T14:43:19;11.30;16.10
2409;DHT22;8463;48.094;7.970;2023-02-19T14:45:56;11.30;16.50
2409;DHT22;8463;48.094;7.970;2023-02-19T14:48:28;11.30;16.50
2409;DHT22;8463;48.094;7.970;2023-02-19T14:51:02;11.30;16.30
2409;DHT22;8463;48.094;7.970;2023-02-19T14:53:29;11.30;16.50
2409;DHT22;8463;48.094;7.970;2023-02-19T14:55:55;11.30;17.20
2409;DHT22;8463;48.094;7.970;2023-02-19T14:58:27;11.20;18.10
2409;DHT22;8463;48.094;7.970;2023-02-19T15:00:54;11.20;17.70
2409;DHT22;8463;48.094;7.970;2023-02-19T15:03:24;11.20;17.20
2409;DHT22;8463;48.094;7.970;2023-02-19T15:06:05;11.20;17.10
2409;DHT22;8463;48.094;7.970;2023-02-19T15:08:41;11.20;17.30
2409;DHT22;8463;48.094;7.970;2023-02-19T15:11:10;11.20;16.80
2409;DHT22;8463;48.094;7.970;2023-02-19T15:13:39;11.20;17.20
2409;DHT22;8463;48.094;7.970;2023-02-19T15:16:20;11.20;17.10
2409;DHT22;8463;48.094;7.970;2023-02-19T15:18:47;11.20;17.00
2409;DHT22;8463;48.094;7.970;2023-02-19T15:21:35;11.20;17.20
2409;DHT22;8463;48.094;7.970;2023-02-19T15:24:04;11.10;17.60
2409;DHT22;8463;48.094;7.970;2023-02-19T15:26:41;11.20;17.30
2409;DHT22;8463;48.094;7.970;2023-02-19T15:29:15;11.10;16.60
2409;DHT22;8463;48.094;7.970;2023-02-19T15:31:45;11.10;15.40
2409;DHT22;8463;48.094;7.970;2023-02-19T15:34:24;11.10;15.70
2409;DHT22;8463;48.094;7.970;2023-02-19T15:36:55;11.10;14.30
2409;DHT22;8463;48.094;7.970;2023-02-19T15:39:23;11.10;14.60
2409;DHT22;8463;48.094;7.970;2023-02-19T15:41:55;11.10;14.50
2409;DHT22;8463;48.094;7.970;2023-02-19T15:47:10;11.00;16.20
2409;DHT22;8463;48.094;7.970;2023-02-19T15:49:48;11.00;16.20
2409;DHT22;8463;48.094;7.970;2023-02-19T15:52:23;11.00;16.70
2409;DHT22;8463;48.094;7.970;2023-02-19T15:54:56;11.00;17.00
2409;DHT22;8463;48.094;7.970;2023-02-19T15:57:28;10.90;17.80
2409;DHT22;8463;48.094;7.970;2023-02-19T16:00:03;10.90;18.10
2409;DHT22;8463;48.094;7.970;2023-02-19T16:02:32;10.90;18.80
2409;DHT22;8463;48.094;7.970;2023-02-19T16:05:00;10.90;18.80
2409;DHT22;8463;48.094;7.970;2023-02-19T16:07:28;10.90;18.80
2409;DHT22;8463;48.094;7.970;2023-02-19T16:10:26;10.90;19.50
2409;DHT22;8463;48.094;7.970;2023-02-19T16:12:59;10.90;19.50
2409;DHT22;8463;48.094;7.970;2023-02-19T16:15:27;10.80;19.90
2409;DHT22;8463;48.094;7.970;2023-02-19T16:17:54;10.80;20.20
2409;DHT22;8463;48.094;7.970;2023-02-19T16:20:26;10.80;20.20
2409;DHT22;8463;48.094;7.970;2023-02-19T16:23:02;10.80;20.10
2409;DHT22;8463;48.094;7.970;2023-02-19T16:25:47;10.70;20.00
2409;DHT22;8463;48.094;7.970;2023-02-19T16:28:22;10.70;20.60
2409;DHT22;8463;48.094;7.970;2023-02-19T16:31:00;10.70;20.30
2409;DHT22;8463;48.094;7.970;2023-02-19T16:36:22;10.70;20.50
2409;DHT22;8463;48.094;7.970;2023-02-19T16:47:04;10.60;20.90
2409;DHT22;8463;48.094;7.970;2023-02-19T16:49:30;10.60;21.00
2409;DHT22;8463;48.094;7.970;2023-02-19T16:51:58;10.60;20.90
2409;DHT22;8463;48.094;7.970;2023-02-19T16:54:25;10.60;21.30
2409;DHT22;8463;48.094;7.970;2023-02-19T16:56:50;10.60;21.50
2409;DHT22;8463;48.094;7.970;2023-02-19T16:59:16;10.60;21.70
2409;DHT22;8463;48.094;7.970;2023-02-19T17:01:41;10.60;22.10
2409;DHT22;8463;48.094;7.970;2023-02-19T17:04:09;10.60;22.40
2409;DHT22;8463;48.094;7.970;2023-02-19T17:06:36;10.50;22.60
2409;DHT22;8463;48.094;7.970;2023-02-19T17:09:03;10.50;23.00
2409;DHT22;8463;48.094;7.970;2023-02-19T17:11:29;10.50;23.20
2409;DHT22;8463;48.094;7.970;2023-02-19T17:13:55;10.50;23.40
2409;DHT22;8463;48.094;7.970;2023-02-19T17:16:23;10.50;23.30
2409;DHT22;8463;48.094;7.970;2023-02-19T17:18:50;10.40;23.80
2409;DHT22;8463;48.094;7.970;2023-02-19T17:21:21;10.40;24.00
2409;DHT22;8463;48.094;7.970;2023-02-19T17:23:48;10.40;23.90
2409;DHT22;8463;48.094;7.970;2023-02-19T17:26:25;10.40;23.70
2409;DHT22;8463;48.094;7.970;2023-02-19T17:28:51;10.40;24.20
2409;DHT22;8463;48.094;7.970;2023-02-19T17:31:17;10.40;24.00
2409;DHT22;8463;48.094;7.970;2023-02-19T17:33:43;10.40;24.50
2409;DHT22;8463;48.094;7.970;2023-02-19T17:36:23;10.30;24.50
2409;DHT22;8463;48.094;7.970;2023-02-19T17:38:51;10.30;24.40
2409;DHT22;8463;48.094;7.970;2023-02-19T17:41:17;10.40;23.80
2409;DHT22;8463;48.094;7.970;2023-02-19T17:43:43;10.40;23.90
2409;DHT22;8463;48.094;7.970;2023-02-19T17:46:14;10.40;23.90
2409;DHT22;8463;48.094;7.970;2023-02-19T17:48:42;10.40;23.70
2409;DHT22;8463;48.094;7.970;2023-02-19T17:51:08;10.40;23.90
2409;DHT22;8463;48.094;7.970;2023-02-19T17:53:34;10.40;23.90
2409;DHT22;8463;48.094;7.970;2023-02-19T17:56:00;10.30;24.40
2409;DHT22;8463;48.094;7.970;2023-02-19T17:58:25;10.30;24.00
2409;DHT22;8463;48.094;7.970;2023-02-19T18:00:51;10.30;24.10
2409;DHT22;8463;48.094;7.970;2023-02-19T18:03:17;10.30;24.30
2409;DHT22;8463;48.094;7.970;2023-02-19T18:05:42;10.20;24.60
2409;DHT22;8463;48.094;7.970;2023-02-19T18:08:08;10.30;24.40
2409;DHT22;8463;48.094;7.970;2023-02-19T18:10:34;10.30;24.50
2409;DHT22;8463;48.094;7.970;2023-02-19T18:13:00;10.30;24.40
2409;DHT22;8463;48.094;7.970;2023-02-19T18:15:26;10.30;24.40
2409;DHT22;8463;48.094;7.970;2023-02-19T18:17:53;10.30;24.80
2409;DHT22;8463;48.094;7.970;2023-02-19T18:20:24;10.30;24.50
2409;DHT22;8463;48.094;7.970;2023-02-19T18:22:51;10.30;24.50
2409;DHT22;8463;48.094;7.970;2023-02-19T18:25:18;10.30;24.50
2409;DHT22;8463;48.094;7.970;2023-02-19T18:27:44;10.30;24.40
2409;DHT22;8463;48.094;7.970;2023-02-19T18:30:10;10.30;24.20
2409;DHT22;8463;48.094;7.970;2023-02-19T18:32:36;10.30;24.40
2409;DHT22;8463;48.094;7.970;2023-02-19T18:35:04;10.20;24.40
2409;DHT22;8463;48.094;7.970;2023-02-19T18:37:30;10.20;24.40
2409;DHT22;8463;48.094;7.970;2023-02-19T18:40:03;10.30;24.50
2409;DHT22;8463;48.094;7.970;2023-02-19T18:42:30;10.30;25.10
2409;DHT22;8463;48.094;7.970;2023-02-19T18:44:58;10.30;25.10
2409;DHT22;8463;48.094;7.970;2023-02-19T18:47:24;10.20;25.00
2409;DHT22;8463;48.094;7.970;2023-02-19T18:49:55;10.20;25.40
2409;DHT22;8463;48.094;7.970;2023-02-19T18:52:22;10.30;25.80
2409;DHT22;8463;48.094;7.970;2023-02-19T18:54:50;10.30;25.80
2409;DHT22;8463;48.094;7.970;2023-02-19T18:57:20;10.30;26.10
2409;DHT22;8463;48.094;7.970;2023-02-19T18:59:46;10.30;26.30
2409;DHT22;8463;48.094;7.970;2023-02-19T19:02:13;10.30;26.70
2409;DHT22;8463;48.094;7.970;2023-02-19T19:04:40;10.30;26.90
2409;DHT22;8463;48.094;7.970;2023-02-19T19:07:06;10.30;26.90
2409;DHT22;8463;48.094;7.970;2023-02-19T19:09:32;10.30;27.30
2409;DHT22;8463;48.094;7.970;2023-02-19T19:11:58;10.30;27.00
2409;DHT22;8463;48.094;7.970;2023-02-19T19:14:24;10.30;27.50
2409;DHT22;8463;48.094;7.970;2023-02-19T19:16:50;10.40;27.40